createdAt,value
2022-11-03T00:00:02.075Z,50.88
2022-11-03T00:02:32.964Z,48.73
2022-11-03T00:05:05.062Z,48.78
2022-11-03T00:07:35.975Z,47.70
2022-11-03T00:10:07.050Z,40.25
2022-11-03T00:12:37.912Z,34.92
2022-11-03T00:15:09.688Z,51.48
2022-11-03T00:17:40.514Z,48.40
2022-11-03T00:20:12.995Z,43.83
2022-11-03T00:22:44.168Z,31.33
2022-11-03T00:25:14.970Z,35.40
2022-11-03T00:27:45.771Z,30.02
2022-11-03T00:30:19.350Z,33.42
2022-11-03T00:32:50.143Z,36.35
2022-11-03T00:35:20.994Z,35.52
2022-11-03T00:37:51.823Z,39.20
2022-11-03T00:40:22.946Z,39.25
2022-11-03T00:42:53.877Z,35.35
2022-11-03T00:45:24.853Z,37.55
2022-11-03T00:48:02.398Z,32.95
2022-11-03T00:50:34.441Z,38.90
2022-11-03T00:53:05.550Z,40.80
2022-11-03T00:55:36.599Z,36.58
2022-11-03T00:58:08.638Z,35.03
2022-11-03T01:00:44.849Z,37.17
2022-11-03T01:03:14.379Z,30.88
2022-11-03T01:06:07.903Z,35.98
2022-11-03T01:08:39.441Z,33.95
2022-11-03T01:11:29.801Z,35.65
2022-11-03T01:14:02.076Z,41.50
2022-11-03T01:16:33.304Z,33.15
2022-11-03T01:19:04.213Z,35.10
2022-11-03T01:21:38.233Z,39.55
2022-11-03T01:24:09.437Z,38.38
2022-11-03T01:26:40.345Z,34.92
2022-11-03T01:29:13.765Z,34.55
2022-11-03T01:31:49.526Z,38.58
2022-11-03T01:34:22.128Z,35.70
2022-11-03T01:36:53.241Z,35.05
2022-11-03T01:39:24.139Z,38.25
2022-11-03T01:41:55.739Z,39.88
2022-11-03T01:44:35.299Z,39.27
2022-11-03T01:47:26.165Z,27.87
2022-11-03T01:50:14.290Z,27.75
2022-11-03T01:52:47.658Z,26.30
2022-11-03T01:55:21.285Z,25.97
2022-11-03T01:58:01.150Z,26.90
2022-11-03T02:00:32.287Z,26.93
2022-11-03T02:03:03.898Z,25.55
2022-11-03T02:05:34.867Z,24.55
2022-11-03T02:10:41.081Z,22.55
2022-11-03T02:13:17.443Z,21.27
2022-11-03T02:15:51.973Z,19.82
2022-11-03T02:18:24.475Z,21.77
2022-11-03T02:21:06.648Z,26.93
2022-11-03T02:23:43.930Z,25.68
2022-11-03T02:26:17.823Z,25.10
2022-11-03T02:28:49.097Z,25.48
2022-11-03T02:31:34.548Z,24.80
2022-11-03T02:34:20.209Z,20.82
2022-11-03T02:37:02.720Z,20.45
2022-11-03T02:39:39.184Z,21.33
2022-11-03T02:42:11.485Z,21.48
2022-11-03T02:44:47.048Z,21.20
2022-11-03T02:47:20.232Z,23.00
2022-11-03T02:49:53.058Z,20.80
2022-11-03T02:52:45.797Z,22.85
2022-11-03T02:55:41.697Z,22.62
2022-11-03T02:58:31.116Z,23.47
2022-11-03T03:01:07.728Z,26.55
2022-11-03T03:03:44.307Z,24.43
2022-11-03T03:06:17.913Z,17.95
2022-11-03T03:08:51.251Z,22.22
2022-11-03T03:11:24.141Z,18.67
2022-11-03T03:13:57.658Z,16.45
2022-11-03T03:16:30.804Z,18.73
2022-11-03T03:19:06.879Z,16.75
2022-11-03T03:21:43.618Z,22.52
2022-11-03T03:26:59.464Z,19.30
2022-11-03T03:29:32.761Z,23.25
2022-11-03T03:32:06.456Z,20.90
2022-11-03T03:34:39.540Z,22.50
2022-11-03T03:37:22.597Z,23.12
2022-11-03T03:39:55.107Z,17.60
2022-11-03T03:42:28.680Z,19.55
2022-11-03T03:45:01.385Z,25.75
2022-11-03T03:47:34.052Z,19.48
2022-11-03T03:50:09.495Z,17.23
2022-11-03T03:52:46.072Z,21.80
2022-11-03T03:55:19.459Z,15.20
2022-11-03T03:57:51.489Z,17.00
2022-11-03T04:00:23.407Z,23.65
2022-11-03T04:02:54.775Z,14.65
2022-11-03T04:05:25.608Z,15.38
2022-11-03T04:07:56.480Z,15.40
2022-11-03T04:10:28.169Z,15.15
2022-11-03T04:13:17.149Z,15.68
2022-11-03T04:15:55.138Z,18.62
2022-11-03T04:18:43.479Z,13.48
2022-11-03T04:21:33.780Z,16.30
2022-11-03T04:24:04.978Z,12.98
2022-11-03T04:26:35.774Z,14.45
2022-11-03T04:29:10.296Z,16.02
2022-11-03T04:31:41.066Z,17.52
2022-11-03T04:34:15.487Z,15.40
2022-11-03T04:36:46.732Z,13.85
2022-11-03T04:39:37.225Z,12.37
2022-11-03T04:42:21.174Z,13.85
2022-11-03T04:44:52.449Z,13.00
2022-11-03T04:47:30.021Z,11.33
2022-11-03T04:50:02.486Z,15.43
2022-11-03T04:52:33.729Z,10.93
2022-11-03T04:55:04.498Z,11.63
2022-11-03T04:57:35.860Z,12.80
2022-11-03T05:00:07.589Z,10.05
2022-11-03T05:02:38.748Z,12.63
2022-11-03T05:05:21.294Z,10.03
2022-11-03T05:08:02.614Z,9.60
2022-11-03T05:10:33.164Z,11.50
2022-11-03T05:13:04.574Z,11.40
2022-11-03T05:15:41.444Z,12.88
2022-11-03T05:18:26.504Z,13.50
2022-11-03T05:21:08.990Z,10.25
2022-11-03T05:23:57.337Z,12.07
2022-11-03T05:26:41.210Z,11.97
2022-11-03T05:29:21.653Z,10.08
2022-11-03T05:31:55.641Z,11.30
2022-11-03T05:34:37.914Z,10.20
2022-11-03T05:37:27.396Z,9.73
2022-11-03T05:40:19.585Z,14.00
2022-11-03T05:42:55.864Z,9.48
2022-11-03T05:45:35.446Z,11.33
2022-11-03T05:48:08.720Z,9.63
2022-11-03T05:50:42.076Z,10.53
2022-11-03T05:53:27.626Z,11.90
2022-11-03T05:56:00.270Z,9.53
2022-11-03T05:58:42.246Z,11.43
2022-11-03T06:01:24.854Z,12.25
2022-11-03T06:03:56.039Z,10.82
2022-11-03T06:06:32.257Z,10.82
2022-11-03T06:09:07.664Z,11.80
2022-11-03T06:11:42.440Z,10.32
2022-11-03T06:14:31.627Z,11.03
2022-11-03T06:17:14.491Z,9.40
2022-11-03T06:19:50.774Z,9.95
2022-11-03T06:22:29.747Z,11.48
2022-11-03T06:25:05.795Z,12.23
2022-11-03T06:27:37.672Z,9.85
2022-11-03T06:30:30.692Z,10.18
2022-11-03T06:33:06.243Z,10.10
2022-11-03T06:35:39.640Z,8.48
2022-11-03T06:38:20.396Z,11.28
2022-11-03T06:40:56.283Z,10.63
2022-11-03T06:43:29.924Z,10.65
2022-11-03T06:46:06.272Z,11.73
2022-11-03T06:48:38.329Z,9.38
2022-11-03T06:51:12.132Z,9.05
2022-11-03T06:53:43.947Z,9.68
2022-11-03T06:56:20.282Z,10.78
2022-11-03T06:58:53.029Z,11.22
2022-11-03T07:01:25.996Z,8.55
2022-11-03T07:04:02.444Z,10.75
2022-11-03T07:06:36.677Z,10.93
2022-11-03T07:09:14.307Z,9.83
2022-11-03T07:11:56.935Z,9.13
2022-11-03T07:14:36.049Z,13.30
2022-11-03T07:17:08.855Z,10.53
2022-11-03T07:19:45.173Z,11.85
2022-11-03T07:22:24.390Z,13.50
2022-11-03T07:24:58.164Z,9.88
2022-11-03T07:27:31.592Z,10.75
2022-11-03T07:30:05.182Z,9.88
2022-11-03T07:32:40.648Z,10.45
2022-11-03T07:35:26.000Z,7.72
2022-11-03T07:38:04.389Z,7.80
2022-11-03T07:40:36.161Z,10.35
2022-11-03T07:43:15.424Z,20.08
2022-11-03T07:45:58.819Z,12.03
2022-11-03T07:48:46.802Z,10.30
2022-11-03T07:51:28.448Z,10.18
2022-11-03T07:54:12.786Z,12.47
2022-11-03T07:56:56.692Z,11.00
2022-11-03T07:59:30.070Z,12.58
2022-11-03T08:02:01.292Z,10.63
2022-11-03T08:04:37.577Z,11.75
2022-11-03T08:07:13.214Z,11.03
2022-11-03T08:09:44.675Z,9.70
2022-11-03T08:12:35.665Z,9.60
2022-11-03T08:15:06.912Z,12.23
2022-11-03T08:17:37.789Z,9.48
2022-11-03T08:20:09.671Z,14.00
2022-11-03T08:22:46.131Z,11.55
2022-11-03T08:25:33.066Z,10.82
2022-11-03T08:28:05.545Z,14.05
2022-11-03T08:30:36.725Z,11.28
2022-11-03T08:33:08.080Z,13.55
2022-11-03T08:35:39.488Z,11.48
2022-11-03T08:38:10.440Z,9.18
2022-11-03T08:40:42.723Z,10.88
2022-11-03T08:43:16.572Z,14.28
2022-11-03T08:45:47.526Z,9.65
2022-11-03T08:48:18.328Z,12.33
2022-11-03T08:50:50.833Z,13.03
2022-11-03T08:53:23.112Z,11.38
2022-11-03T08:55:54.206Z,11.65
2022-11-03T08:58:25.674Z,9.88
2022-11-03T09:00:56.475Z,11.85
2022-11-03T09:03:27.637Z,12.90
2022-11-03T09:05:58.485Z,10.13
2022-11-03T09:11:02.910Z,10.55
2022-11-03T09:13:34.536Z,10.20
2022-11-03T09:16:06.762Z,12.10
2022-11-03T09:18:40.878Z,11.10
2022-11-03T09:21:11.752Z,11.35
2022-11-03T09:23:42.556Z,9.35
2022-11-03T09:26:13.423Z,13.10
2022-11-03T09:28:44.261Z,12.75
2022-11-03T09:31:15.291Z,12.98
2022-11-03T09:33:46.056Z,14.13
2022-11-03T09:36:17.350Z,10.95
2022-11-03T09:38:48.324Z,12.40
2022-11-03T09:41:27.581Z,10.78
2022-11-03T09:43:52.982Z,13.40
2022-11-03T09:46:24.138Z,11.18
2022-11-03T09:48:56.548Z,12.63
2022-11-03T09:51:30.291Z,9.53
2022-11-03T09:54:03.649Z,15.30
2022-11-03T09:56:36.087Z,10.68
2022-11-03T09:59:15.977Z,14.55
2022-11-03T10:01:49.863Z,14.58
2022-11-03T10:04:29.716Z,12.03
2022-11-03T10:07:01.294Z,14.40
2022-11-03T10:09:33.217Z,13.60
2022-11-03T10:12:04.733Z,13.72
2022-11-03T10:14:35.985Z,20.08
2022-11-03T10:17:07.644Z,19.48
2022-11-03T10:19:38.860Z,12.15
2022-11-03T10:22:10.549Z,12.40
2022-11-03T10:24:41.702Z,13.60
2022-11-03T10:27:30.317Z,13.98
2022-11-03T10:30:12.743Z,15.65
2022-11-03T10:32:46.807Z,15.35
2022-11-03T10:35:37.765Z,17.55
2022-11-03T10:38:13.893Z,12.73
2022-11-03T10:40:48.149Z,15.72
2022-11-03T10:43:18.362Z,15.45
2022-11-03T10:45:50.410Z,13.38
2022-11-03T10:48:21.588Z,16.85
2022-11-03T10:50:53.207Z,15.98
2022-11-03T10:55:58.741Z,12.10
2022-11-03T10:58:29.701Z,13.05
2022-11-03T11:01:00.872Z,15.05
2022-11-03T11:03:32.549Z,14.63
2022-11-03T11:06:04.583Z,13.03
2022-11-03T11:08:35.892Z,29.67
2022-11-03T11:11:16.574Z,20.08
2022-11-03T11:13:42.353Z,17.00
2022-11-03T11:16:50.334Z,19.02
2022-11-03T11:19:21.422Z,20.60
2022-11-03T11:21:55.250Z,19.65
2022-11-03T11:24:48.239Z,18.65
2022-11-03T11:27:36.562Z,17.35
2022-11-03T11:30:27.657Z,19.62
2022-11-03T11:33:19.166Z,18.73
2022-11-03T11:35:59.251Z,18.80
2022-11-03T11:38:54.102Z,18.37
2022-11-03T11:41:26.571Z,20.20
2022-11-03T11:43:58.630Z,17.12
2022-11-03T11:46:38.425Z,23.20
2022-11-03T11:49:12.131Z,18.85
2022-11-03T11:51:44.323Z,21.25
2022-11-03T11:54:18.450Z,16.97
2022-11-03T11:56:51.373Z,16.45
2022-11-03T11:59:26.366Z,21.60
2022-11-03T12:01:58.939Z,22.55
2022-11-03T12:04:34.487Z,18.98
2022-11-03T12:07:05.543Z,19.42
2022-11-03T12:09:36.791Z,19.02
2022-11-03T12:12:09.067Z,16.73
2022-11-03T12:14:41.919Z,19.92
2022-11-03T12:17:24.377Z,16.80
2022-11-03T12:19:56.764Z,20.25
2022-11-03T12:22:30.905Z,20.95
2022-11-03T12:25:02.864Z,21.27
2022-11-03T12:27:37.732Z,21.80
2022-11-03T12:30:11.346Z,18.87
2022-11-03T12:32:42.268Z,16.55
2022-11-03T12:35:14.804Z,16.48
2022-11-03T12:37:49.629Z,18.00
2022-11-03T12:40:20.868Z,26.00
2022-11-03T12:42:53.952Z,19.87
2022-11-03T12:45:31.987Z,20.10
2022-11-03T12:48:03.300Z,21.00
2022-11-03T12:50:34.210Z,18.45
2022-11-03T12:53:05.874Z,21.93
2022-11-03T12:55:43.781Z,21.77
2022-11-03T12:58:13.607Z,22.40
2022-11-03T13:00:49.924Z,18.98
2022-11-03T13:03:16.970Z,22.52
2022-11-03T13:05:49.852Z,21.35
2022-11-03T13:08:30.325Z,22.60
2022-11-03T13:11:06.137Z,20.43
2022-11-03T13:13:38.729Z,23.92
2022-11-03T13:16:11.275Z,23.90
2022-11-03T13:18:42.239Z,20.57
2022-11-03T13:21:15.125Z,21.97
2022-11-03T13:23:45.984Z,20.88
2022-11-03T13:26:17.367Z,24.20
2022-11-03T13:28:49.237Z,24.15
2022-11-03T13:31:20.671Z,29.55
2022-11-03T13:33:52.790Z,22.93
2022-11-03T13:36:27.468Z,27.90
2022-11-03T13:38:58.113Z,23.85
2022-11-03T13:41:29.283Z,28.05
2022-11-03T13:44:00.099Z,37.48
2022-11-03T13:46:30.903Z,23.75
2022-11-03T13:51:45.500Z,33.08
2022-11-03T14:06:57.837Z,33.65
2022-11-03T14:09:28.668Z,31.35
2022-11-03T14:12:18.001Z,30.10
2022-11-03T14:14:48.832Z,33.60
2022-11-03T14:17:19.837Z,32.63
2022-11-03T14:19:52.607Z,38.80
2022-11-03T14:22:26.482Z,29.75
2022-11-03T14:24:59.795Z,32.08
2022-11-03T14:27:30.923Z,34.27
2022-11-03T14:30:01.786Z,28.07
2022-11-03T14:32:32.576Z,29.67
2022-11-03T14:35:03.426Z,30.50
2022-11-03T14:37:34.380Z,32.30
2022-11-03T14:40:05.546Z,31.07
2022-11-03T14:42:36.363Z,37.25
2022-11-03T14:45:08.460Z,34.73
2022-11-03T14:47:39.386Z,35.20
2022-11-03T14:50:11.163Z,41.68
2022-11-03T14:52:41.933Z,37.30
2022-11-03T14:55:12.985Z,41.88
2022-11-03T14:57:43.857Z,42.00
2022-11-03T15:00:15.307Z,36.88
2022-11-03T15:02:46.104Z,45.25
2022-11-03T15:05:34.444Z,40.63
2022-11-03T15:08:05.487Z,38.02
2022-11-03T15:10:36.690Z,40.88
2022-11-03T15:13:07.806Z,38.08
2022-11-03T15:15:41.191Z,37.78
2022-11-03T15:18:13.366Z,37.67
2022-11-03T15:20:45.506Z,33.80
2022-11-03T15:25:49.743Z,38.65
2022-11-03T15:28:21.814Z,33.92
2022-11-03T15:30:55.389Z,39.08
2022-11-03T15:33:26.246Z,37.83
2022-11-03T15:35:57.123Z,40.15
2022-11-03T15:38:35.118Z,33.18
2022-11-03T15:43:53.347Z,40.67
2022-11-03T15:46:23.730Z,40.25
2022-11-03T15:48:55.829Z,39.25
2022-11-03T15:51:31.224Z,40.63
2022-11-03T15:54:02.077Z,40.33
2022-11-03T15:56:33.898Z,40.28
2022-11-03T15:59:07.077Z,43.20
2022-11-03T16:01:44.441Z,39.08
2022-11-03T16:04:09.729Z,37.88
2022-11-03T16:09:15.059Z,45.40
2022-11-03T16:11:45.965Z,41.85
2022-11-03T16:14:20.781Z,43.70
2022-11-03T16:16:58.013Z,39.40
2022-11-03T16:19:31.469Z,40.35
2022-11-03T16:22:07.727Z,46.77
2022-11-03T16:24:49.046Z,43.33
2022-11-03T16:27:19.199Z,43.13
2022-11-03T16:29:56.444Z,41.60
2022-11-03T16:32:27.469Z,41.28
2022-11-03T16:34:58.310Z,43.20
2022-11-03T16:37:37.336Z,39.95
2022-11-03T16:40:16.209Z,41.00
2022-11-03T16:42:44.692Z,43.00
2022-11-03T16:45:37.437Z,45.95
2022-11-03T16:48:08.618Z,38.35
2022-11-03T16:50:41.556Z,46.05
2022-11-03T16:53:13.473Z,35.78
2022-11-03T16:55:45.553Z,41.13
2022-11-03T16:58:17.615Z,38.33
2022-11-03T17:00:48.454Z,45.25
2022-11-03T17:03:19.338Z,45.23
2022-11-03T17:05:50.127Z,40.90
2022-11-03T17:10:53.153Z,40.67
2022-11-03T17:13:23.951Z,38.05
2022-11-03T17:15:54.830Z,39.90
2022-11-03T17:18:25.594Z,44.38
2022-11-03T17:20:56.365Z,39.55
2022-11-03T17:23:27.170Z,39.33
2022-11-03T17:25:58.855Z,45.70
2022-11-03T17:28:30.055Z,41.68
2022-11-03T17:31:01.344Z,34.75
2022-11-03T17:33:36.238Z,39.10
2022-11-03T17:36:06.256Z,38.08
2022-11-03T17:38:38.299Z,42.13
2022-11-03T17:41:15.036Z,36.80
2022-11-03T17:43:44.583Z,41.50
2022-11-03T17:46:15.480Z,39.40
2022-11-03T17:48:46.263Z,41.10
2022-11-03T17:51:17.056Z,45.80
2022-11-03T17:53:50.991Z,41.33
2022-11-03T17:56:29.981Z,41.45
2022-11-03T17:58:56.603Z,37.05
2022-11-03T18:01:29.072Z,35.78
2022-11-03T18:04:00.395Z,38.65
2022-11-03T18:06:33.126Z,37.25
2022-11-03T18:09:03.921Z,36.40
2022-11-03T18:11:53.036Z,38.80
2022-11-03T18:14:24.523Z,34.70
2022-11-03T18:16:55.563Z,35.00
2022-11-03T18:19:26.451Z,37.40
2022-11-03T18:21:57.266Z,35.33
2022-11-03T18:24:29.132Z,36.05
2022-11-03T18:26:59.960Z,37.25
2022-11-03T18:29:30.785Z,38.08
2022-11-03T18:32:02.939Z,33.35
2022-11-03T18:34:35.985Z,36.25
2022-11-03T18:37:08.058Z,37.23
2022-11-03T18:39:43.219Z,30.75
2022-11-03T18:42:17.741Z,39.30
2022-11-03T18:44:49.878Z,39.73
2022-11-03T18:47:23.457Z,31.30
2022-11-03T18:49:56.374Z,29.65
2022-11-03T18:52:34.837Z,33.23
2022-11-03T18:55:27.311Z,30.68
2022-11-03T18:57:52.463Z,30.68
2022-11-03T19:00:25.194Z,31.05
2022-11-03T19:02:56.018Z,27.40
2022-11-03T19:05:36.672Z,33.67
2022-11-03T19:08:33.007Z,30.95
2022-11-03T19:10:50.704Z,31.25
2022-11-03T19:13:44.772Z,32.78
2022-11-03T19:16:25.437Z,32.13
2022-11-03T19:18:56.267Z,33.83
2022-11-03T19:21:27.324Z,34.05
2022-11-03T19:23:58.622Z,35.33
2022-11-03T19:26:38.191Z,33.80
2022-11-03T19:29:17.667Z,30.88
2022-11-03T19:31:50.772Z,34.90
2022-11-03T19:34:30.288Z,33.92
2022-11-03T19:37:01.485Z,38.85
2022-11-03T19:39:41.370Z,33.75
2022-11-03T19:42:29.945Z,37.88
2022-11-03T19:45:06.440Z,34.53
2022-11-03T19:47:57.559Z,33.50
2022-11-03T19:50:24.748Z,36.15
2022-11-03T19:53:00.637Z,33.45
2022-11-03T19:55:33.948Z,39.20
2022-11-03T19:58:19.030Z,34.20
2022-11-03T20:00:50.514Z,33.15
2022-11-03T20:03:23.115Z,36.38
2022-11-03T20:05:59.425Z,35.08
2022-11-03T20:08:31.787Z,30.37
2022-11-03T20:11:03.192Z,35.52
2022-11-03T20:13:36.539Z,40.92
2022-11-03T20:16:10.073Z,37.55
2022-11-03T20:18:49.473Z,38.10
2022-11-03T20:21:21.769Z,35.25
2022-11-03T20:23:53.241Z,43.78
2022-11-03T20:26:26.055Z,35.23
2022-11-03T20:28:58.562Z,37.03
2022-11-03T20:31:30.636Z,39.10
2022-11-03T20:34:01.458Z,40.55
2022-11-03T20:36:34.552Z,34.33
2022-11-03T20:39:05.581Z,40.80
2022-11-03T20:41:36.767Z,39.33
2022-11-03T20:44:08.108Z,37.10
2022-11-03T20:46:38.994Z,35.28
2022-11-03T20:49:09.807Z,36.83
2022-11-03T20:51:43.130Z,40.43
2022-11-03T20:54:23.987Z,37.00
2022-11-03T20:56:54.797Z,39.78
2022-11-03T20:59:27.143Z,44.18
2022-11-03T21:01:58.513Z,43.08
2022-11-03T21:04:30.835Z,40.05
2022-11-03T21:07:01.632Z,40.15
2022-11-03T21:09:32.851Z,40.80
2022-11-03T21:12:03.664Z,48.85
2022-11-03T21:14:37.606Z,42.40
2022-11-03T21:17:27.986Z,42.80
2022-11-03T21:20:02.852Z,45.90
2022-11-03T21:22:53.828Z,48.33
2022-11-03T21:25:18.904Z,43.75
2022-11-03T21:27:51.256Z,47.15
2022-11-03T21:30:22.366Z,44.10
2022-11-03T21:32:53.389Z,45.12
2022-11-03T21:35:24.912Z,44.48
2022-11-03T21:37:55.698Z,44.10
2022-11-03T21:40:26.581Z,50.35
2022-11-03T21:43:14.572Z,44.30
2022-11-03T21:45:45.510Z,48.78
2022-11-03T21:48:33.914Z,47.83
2022-11-03T21:51:05.011Z,46.05
2022-11-03T21:53:35.896Z,45.80
2022-11-03T21:56:10.442Z,43.30
2022-11-03T21:58:39.240Z,40.63
2022-11-03T22:01:10.663Z,43.10
2022-11-03T22:03:41.923Z,43.63
2022-11-03T22:06:13.425Z,46.65
2022-11-03T22:08:46.370Z,42.10
2022-11-03T22:11:23.465Z,39.50
2022-11-03T22:13:59.044Z,52.93
2022-11-03T22:16:41.349Z,55.50
2022-11-03T22:19:34.534Z,42.45
2022-11-03T22:22:24.568Z,43.48
2022-11-03T22:25:12.726Z,37.48
2022-11-03T22:27:43.715Z,41.75
2022-11-03T22:30:32.061Z,39.23
2022-11-03T22:33:02.845Z,43.28
2022-11-03T22:35:52.878Z,38.25
2022-11-03T22:38:24.955Z,40.43
2022-11-03T22:41:13.184Z,46.28
2022-11-03T22:44:01.411Z,41.85
2022-11-03T22:46:32.270Z,42.65
2022-11-03T22:49:03.511Z,37.93
2022-11-03T22:51:35.585Z,41.25
2022-11-03T22:54:12.566Z,40.78
2022-11-03T22:56:43.502Z,41.08
2022-11-03T22:59:14.300Z,38.85
2022-11-03T23:01:45.299Z,37.88
2022-11-03T23:04:16.225Z,44.98
2022-11-03T23:06:47.019Z,45.28
2022-11-03T23:09:17.783Z,46.30
2022-11-03T23:11:51.324Z,43.60
2022-11-03T23:14:25.191Z,46.02
2022-11-03T23:16:55.991Z,42.48
2022-11-03T23:19:44.391Z,34.20
2022-11-03T23:22:15.190Z,37.42
2022-11-03T23:25:01.295Z,37.15
2022-11-03T23:27:32.105Z,33.25
2022-11-03T23:30:02.901Z,36.28
2022-11-03T23:32:33.726Z,34.15
2022-11-03T23:35:05.701Z,35.35
2022-11-03T23:37:36.517Z,32.42
2022-11-03T23:40:07.716Z,38.83
2022-11-03T23:42:38.598Z,34.25
2022-11-03T23:45:27.380Z,37.70
2022-11-03T23:48:15.853Z,35.17
2022-11-03T23:50:53.099Z,34.43
2022-11-03T23:53:27.314Z,33.67
2022-11-03T23:56:17.958Z,36.63
2022-11-03T23:58:52.994Z,38.67
